createdAt,value
2023-03-27T00:01:16.246Z,1.20
2023-03-27T00:03:43.189Z,1.20
2023-03-27T00:06:17.096Z,1.17
2023-03-27T00:08:46.341Z,1.77
2023-03-27T00:11:14.438Z,1.30
2023-03-27T00:13:49.093Z,1.43
2023-03-27T00:16:18.321Z,1.63
2023-03-27T00:18:45.814Z,2.03
2023-03-27T00:21:12.751Z,3.10
2023-03-27T00:23:40.385Z,1.30
2023-03-27T00:26:07.319Z,1.50
2023-03-27T00:28:35.393Z,1.30
2023-03-27T00:31:02.520Z,1.50
2023-03-27T00:33:29.448Z,1.30
2023-03-27T00:35:56.396Z,1.30
2023-03-27T00:38:24.311Z,1.43
2023-03-27T00:40:53.557Z,1.40
2023-03-27T00:43:26.157Z,1.37
2023-03-27T00:46:01.433Z,1.13
2023-03-27T00:48:30.440Z,1.10
2023-03-27T00:50:58.352Z,1.13
2023-03-27T00:53:27.808Z,1.30
2023-03-27T00:55:58.889Z,1.20
2023-03-27T00:58:33.212Z,1.33
2023-03-27T01:01:00.323Z,1.53
2023-03-27T01:03:31.004Z,1.27
2023-03-27T01:06:00.979Z,1.40
2023-03-27T01:08:33.638Z,1.40
2023-03-27T01:11:09.937Z,1.50
2023-03-27T01:13:45.898Z,1.10
2023-03-27T01:16:23.066Z,1.50
2023-03-27T01:19:26.046Z,1.10
2023-03-27T01:22:14.733Z,1.30
2023-03-27T01:25:07.954Z,1.40
2023-03-27T01:28:12.643Z,1.20
2023-03-27T01:30:50.298Z,1.40
2023-03-27T01:33:17.408Z,1.80
2023-03-27T01:36:11.884Z,1.17
2023-03-27T01:39:05.393Z,1.47
2023-03-27T01:41:47.014Z,1.10
2023-03-27T01:44:36.410Z,1.00
2023-03-27T01:47:44.111Z,1.27
2023-03-27T01:50:26.053Z,1.07
2023-03-27T01:52:59.471Z,0.90
2023-03-27T01:55:30.025Z,1.10
2023-03-27T01:58:09.847Z,1.00
2023-03-27T02:00:52.319Z,0.97
2023-03-27T02:03:27.017Z,1.17
2023-03-27T02:05:57.012Z,1.00
2023-03-27T02:08:32.196Z,1.00
2023-03-27T02:11:00.355Z,1.00
2023-03-27T02:13:37.432Z,0.90
2023-03-27T02:16:07.176Z,0.90
2023-03-27T02:18:38.061Z,0.90
2023-03-27T02:21:06.136Z,1.00
2023-03-27T02:23:33.076Z,1.40
2023-03-27T02:26:00.265Z,0.90
2023-03-27T02:28:35.946Z,0.90
2023-03-27T02:31:33.303Z,0.80
2023-03-27T02:34:22.520Z,0.90
2023-03-27T02:37:16.233Z,0.70
2023-03-27T02:39:42.912Z,1.00
2023-03-27T02:42:23.965Z,0.80
2023-03-27T02:45:06.934Z,0.80
2023-03-27T02:47:46.007Z,0.90
2023-03-27T02:50:21.861Z,1.00
2023-03-27T02:52:53.442Z,0.90
2023-03-27T02:55:33.210Z,0.90
2023-03-27T02:58:05.496Z,0.90
2023-03-27T03:00:37.500Z,0.90
2023-03-27T03:03:27.639Z,1.00
2023-03-27T03:05:55.918Z,0.97
2023-03-27T03:08:23.233Z,1.00
2023-03-27T03:10:49.978Z,0.90
2023-03-27T03:13:18.151Z,0.80
2023-03-27T03:15:50.262Z,1.40
2023-03-27T03:18:17.326Z,1.77
2023-03-27T03:20:44.573Z,1.30
2023-03-27T03:23:11.232Z,0.90
2023-03-27T03:25:37.905Z,1.10
2023-03-27T03:28:08.111Z,1.20
2023-03-27T03:30:34.902Z,1.20
2023-03-27T03:33:01.607Z,1.23
2023-03-27T03:35:28.396Z,1.20
2023-03-27T03:37:55.161Z,1.50
2023-03-27T03:40:22.190Z,1.40
2023-03-27T03:42:50.970Z,1.33
2023-03-27T03:45:18.893Z,1.80
2023-03-27T03:47:46.032Z,1.60
2023-03-27T03:50:13.824Z,1.80
2023-03-27T03:52:41.671Z,2.03
2023-03-27T03:55:11.780Z,1.70
2023-03-27T03:57:38.595Z,1.90
2023-03-27T04:00:08.695Z,1.60
2023-03-27T04:02:37.067Z,1.93
2023-03-27T04:05:08.836Z,1.83
2023-03-27T04:07:36.270Z,2.03
2023-03-27T04:10:03.904Z,1.80
2023-03-27T04:12:30.626Z,1.90
2023-03-27T04:14:57.371Z,1.53
2023-03-27T04:17:26.262Z,2.00
2023-03-27T04:19:57.265Z,1.90
2023-03-27T04:22:24.330Z,2.50
2023-03-27T04:24:51.074Z,1.63
2023-03-27T04:27:18.223Z,1.70
2023-03-27T04:29:47.364Z,1.80
2023-03-27T04:32:20.099Z,1.50
2023-03-27T04:34:48.260Z,1.50
2023-03-27T04:37:15.023Z,1.57
2023-03-27T04:39:46.239Z,1.53
2023-03-27T04:42:16.612Z,1.80
2023-03-27T04:44:46.483Z,1.37
2023-03-27T04:47:13.307Z,1.40
2023-03-27T04:49:46.769Z,1.30
2023-03-27T04:52:14.334Z,1.20
2023-03-27T04:54:42.044Z,1.27
2023-03-27T04:57:09.929Z,1.43
2023-03-27T04:59:37.152Z,1.43
2023-03-27T05:02:05.137Z,1.33
2023-03-27T05:04:32.535Z,1.60
2023-03-27T05:07:00.609Z,1.30
2023-03-27T05:09:27.313Z,1.10
2023-03-27T05:11:53.980Z,1.23
2023-03-27T05:14:22.289Z,1.67
2023-03-27T05:16:50.576Z,1.07
2023-03-27T05:19:19.375Z,1.20
2023-03-27T05:21:47.026Z,1.50
2023-03-27T05:24:15.427Z,1.07
2023-03-27T05:26:43.430Z,1.10
2023-03-27T05:29:10.202Z,1.30
2023-03-27T05:31:38.192Z,1.20
2023-03-27T05:34:05.765Z,1.10
2023-03-27T05:36:32.572Z,1.40
2023-03-27T05:38:59.309Z,1.23
2023-03-27T05:41:26.244Z,1.27
2023-03-27T05:43:53.496Z,0.87
2023-03-27T05:46:21.731Z,1.17
2023-03-27T05:48:48.866Z,1.30
2023-03-27T05:51:15.795Z,1.00
2023-03-27T05:53:43.100Z,1.00
2023-03-27T05:56:10.537Z,0.90
2023-03-27T05:58:37.373Z,1.10
2023-03-27T06:01:04.345Z,1.03
2023-03-27T06:03:31.304Z,1.10
2023-03-27T06:06:01.316Z,0.80
2023-03-27T06:08:29.607Z,1.07
2023-03-27T06:10:57.411Z,1.33
2023-03-27T06:13:24.456Z,1.30
2023-03-27T06:15:54.102Z,1.30
2023-03-27T06:18:21.052Z,2.67
2023-03-27T06:20:48.651Z,1.40
2023-03-27T06:23:15.452Z,1.10
2023-03-27T06:25:43.545Z,1.33
2023-03-27T06:28:11.104Z,1.10
2023-03-27T06:30:38.894Z,1.13
2023-03-27T06:33:07.577Z,1.90
2023-03-27T06:35:35.178Z,1.70
2023-03-27T06:38:02.787Z,1.40
2023-03-27T06:40:31.840Z,2.23
2023-03-27T06:43:04.356Z,2.17
2023-03-27T06:45:38.252Z,1.83
2023-03-27T06:48:18.850Z,1.70
2023-03-27T06:50:49.292Z,1.60
2023-03-27T06:53:26.543Z,3.37
2023-03-27T06:55:54.387Z,2.00
2023-03-27T06:58:21.777Z,1.77
2023-03-27T07:00:50.424Z,1.80
2023-03-27T07:03:19.003Z,2.00
2023-03-27T07:05:46.149Z,2.20
2023-03-27T07:08:23.374Z,3.20
2023-03-27T07:11:10.623Z,1.80
2023-03-27T07:13:38.523Z,2.57
2023-03-27T07:16:15.792Z,2.33
2023-03-27T07:18:42.927Z,2.13
2023-03-27T07:21:18.867Z,2.03
2023-03-27T07:23:48.592Z,1.80
2023-03-27T07:26:15.664Z,2.63
2023-03-27T07:28:44.679Z,3.10
2023-03-27T07:31:51.215Z,2.57
2023-03-27T07:34:23.598Z,3.10
2023-03-27T07:36:53.572Z,3.63
2023-03-27T07:39:23.762Z,3.93
2023-03-27T07:41:52.989Z,3.13
2023-03-27T07:44:20.260Z,2.80
2023-03-27T07:46:52.650Z,4.73
2023-03-27T07:49:19.440Z,2.93
2023-03-27T07:52:06.734Z,3.77
2023-03-27T07:54:39.156Z,3.90
2023-03-27T07:57:10.249Z,5.90
2023-03-27T08:00:00.260Z,4.87
2023-03-27T08:02:27.537Z,4.37
2023-03-27T08:04:55.334Z,4.60
2023-03-27T08:07:22.861Z,8.43
2023-03-27T08:09:49.602Z,8.20
2023-03-27T08:12:22.032Z,5.20
2023-03-27T08:14:51.692Z,5.83
2023-03-27T08:17:20.625Z,7.30
2023-03-27T08:19:48.918Z,7.97
2023-03-27T08:22:15.720Z,7.97
2023-03-27T08:24:45.486Z,7.90
2023-03-27T08:27:14.869Z,10.10
2023-03-27T08:35:32.621Z,5.63
2023-03-27T08:40:51.168Z,5.80
2023-03-27T08:43:22.489Z,7.57
2023-03-27T08:45:57.683Z,9.07
2023-03-27T08:48:33.835Z,6.93
2023-03-27T08:51:08.069Z,8.03
2023-03-27T08:53:35.015Z,6.97
2023-03-27T08:56:03.465Z,9.20
2023-03-27T08:58:30.625Z,8.23
2023-03-27T09:01:08.628Z,8.97
2023-03-27T09:04:28.562Z,8.47
2023-03-27T09:07:24.779Z,8.37
2023-03-27T09:10:05.533Z,8.20
2023-03-27T09:13:15.467Z,7.33
2023-03-27T09:16:14.137Z,7.10
2023-03-27T09:19:09.977Z,6.57
2023-03-27T09:21:47.076Z,9.50
2023-03-27T09:24:30.978Z,9.50
2023-03-27T09:27:07.277Z,12.50
2023-03-27T09:32:33.655Z,8.03
2023-03-27T09:35:10.082Z,8.30
2023-03-27T09:37:44.374Z,7.80
2023-03-27T09:40:48.566Z,8.97
2023-03-27T09:43:20.529Z,7.03
2023-03-27T09:45:52.059Z,9.20
2023-03-27T09:48:32.427Z,9.70
2023-03-27T09:50:59.253Z,7.03
2023-03-27T09:53:29.012Z,7.60
2023-03-27T09:56:05.366Z,13.27
2023-03-27T09:58:46.203Z,8.93
2023-03-27T10:01:30.635Z,8.17
2023-03-27T10:03:59.698Z,11.07
2023-03-27T10:06:36.234Z,12.07
2023-03-27T10:09:26.510Z,10.03
2023-03-27T10:12:20.606Z,10.73
2023-03-27T10:14:52.419Z,9.80
2023-03-27T10:17:31.349Z,8.90
2023-03-27T10:20:09.072Z,9.97
2023-03-27T10:22:39.049Z,9.47
2023-03-27T10:25:21.079Z,9.93
2023-03-27T10:27:47.850Z,7.67
2023-03-27T10:30:40.941Z,6.27
2023-03-27T10:33:07.724Z,8.33
2023-03-27T10:35:44.786Z,9.23
2023-03-27T10:38:14.929Z,10.10
2023-03-27T10:40:50.072Z,7.77
2023-03-27T10:43:33.589Z,9.03
2023-03-27T10:46:06.981Z,8.23
2023-03-27T10:48:39.631Z,8.70
2023-03-27T10:51:21.020Z,11.13
